Time;durP1;ratioP1;P1;durP2;ratioP2;P2;SDS_P1;SDS_P2;PMS_P1;PMS_P2;Temp;Humidity;BMP_temperature;BMP_pressure;BME280_temperature;BME280_humidity;BME280_pressure;Samples;Min_cycle;Max_cycle;Signal;HPM_P1;HPM_P2
2022/05/12 00:00:31;;;;;;;28.43;4.50;;;11.80;99.90;;;;;;5022419;28;20231;-69
2022/05/12 00:02:58;;;;;;;31.63;3.30;;;11.80;99.90;;;;;;5034033;28;20185;-69
2022/05/12 00:05:24;;;;;;;28.70;4.17;;;11.80;99.90;;;;;;5029803;28;20178;-69
2022/05/12 00:07:51;;;;;;;22.67;3.53;;;11.80;99.90;;;;;;5029664;28;20294;-69
2022/05/12 00:10:21;;;;;;;33.13;4.67;;;11.80;99.90;;;;;;5014453;28;20202;-66
2022/05/12 00:12:47;;;;;;;33.70;4.47;;;11.80;99.90;;;;;;5030237;28;20200;-67
2022/05/12 00:15:17;;;;;;;27.27;3.80;;;11.80;99.90;;;;;;5031833;28;20249;-66
2022/05/12 00:17:44;;;;;;;34.57;4.23;;;11.70;99.90;;;;;;5030926;28;20291;-66
2022/05/12 00:20:12;;;;;;;30.17;3.47;;;11.70;99.90;;;;;;5033333;28;20327;-66
2022/05/12 00:22:38;;;;;;;25.60;4.10;;;11.70;99.90;;;;;;5026990;28;20174;-66
2022/05/12 00:25:08;;;;;;;27.37;3.90;;;11.70;99.90;;;;;;5026490;28;20182;-65
2022/05/12 00:27:34;;;;;;;27.97;3.80;;;11.70;99.90;;;;;;5026061;28;20676;-68
2022/05/12 00:29:59;;;;;;;23.40;2.77;;;11.70;99.90;;;;;;5033668;28;20174;-65
2022/05/12 00:32:25;;;;;;;23.30;3.33;;;11.70;99.90;;;;;;5033418;28;20181;-65
2022/05/12 00:34:51;;;;;;;30.37;3.40;;;11.70;99.90;;;;;;5033594;28;20201;-66
2022/05/12 00:37:16;;;;;;;18.13;2.83;;;11.60;99.90;;;;;;5032461;28;20184;-66
2022/05/12 00:39:42;;;;;;;19.73;3.13;;;11.60;99.90;;;;;;5018910;28;20214;-66
2022/05/12 00:42:08;;;;;;;21.53;3.27;;;11.60;99.90;;;;;;5032253;28;20277;-64
2022/05/12 00:44:33;;;;;;;26.40;3.40;;;11.60;99.90;;;;;;5033363;28;20603;-65
2022/05/12 00:46:59;;;;;;;25.70;2.90;;;11.60;99.90;;;;;;5031516;28;20177;-66
2022/05/12 00:49:35;;;;;;;24.57;3.23;;;11.60;99.90;;;;;;5030029;28;20228;-66
2022/05/12 00:52:06;;;;;;;32.27;3.90;;;11.60;99.90;;;;;;5030342;28;20231;-66
2022/05/12 00:54:44;;;;;;;28.27;3.33;;;11.60;99.90;;;;;;5013938;28;20174;-66
2022/05/12 00:57:14;;;;;;;25.47;3.10;;;11.60;99.90;;;;;;5013945;28;20177;-66
2022/05/12 00:59:40;;;;;;;32.63;3.70;;;11.50;99.90;;;;;;5013500;28;20224;-66
2022/05/12 01:02:14;;;;;;;29.60;3.33;;;11.60;99.90;;;;;;5016447;28;20213;-67
2022/05/12 01:04:41;;;;;;;28.90;3.90;;;11.50;99.90;;;;;;5022734;28;20182;-61
2022/05/12 01:07:07;;;;;;;21.53;4.17;;;11.50;99.90;;;;;;5023233;28;20217;-66
2022/05/12 01:09:33;;;;;;;26.67;2.87;;;11.40;99.90;;;;;;5013327;28;20269;-66
2022/05/12 01:11:59;;;;;;;26.33;3.63;;;11.40;99.90;;;;;;5029023;28;20170;-66
2022/05/12 01:14:25;;;;;;;26.33;3.67;;;11.30;99.90;;;;;;5032984;28;20724;-68
2022/05/12 01:16:57;;;;;;;23.97;3.27;;;11.30;99.90;;;;;;5033011;28;20252;-66
2022/05/12 01:19:29;;;;;;;25.53;3.93;;;11.30;99.90;;;;;;5032978;28;20189;-67
2022/05/12 01:21:55;;;;;;;25.10;2.97;;;11.20;99.90;;;;;;5032777;28;20251;-66
2022/05/12 01:24:24;;;;;;;26.00;3.97;;;11.20;99.90;;;;;;5017189;28;20174;-66
2022/05/12 01:26:50;;;;;;;28.63;3.67;;;11.20;99.90;;;;;;5013049;28;20175;-67
2022/05/12 01:29:16;;;;;;;19.37;2.67;;;11.20;99.90;;;;;;5032336;28;20173;-67
2022/05/12 01:31:42;;;;;;;27.77;3.50;;;11.20;99.90;;;;;;5032835;28;20189;-67
2022/05/12 01:34:09;;;;;;;23.10;3.37;;;11.20;99.90;;;;;;5031042;28;20541;-68
2022/05/12 01:36:36;;;;;;;20.77;3.13;;;11.20;99.90;;;;;;5015514;28;20792;-68
2022/05/12 01:39:03;;;;;;;19.73;3.03;;;11.30;99.90;;;;;;5028319;28;20179;-68
2022/05/12 01:41:28;;;;;;;31.70;3.53;;;11.30;99.90;;;;;;5012635;28;20711;-69
2022/05/12 01:43:54;;;;;;;21.27;3.10;;;11.40;99.90;;;;;;5025372;28;20213;-67
2022/05/12 01:46:20;;;;;;;23.47;3.83;;;11.30;99.90;;;;;;5014952;28;20768;-67
2022/05/12 01:48:45;;;;;;;19.30;2.73;;;11.30;99.90;;;;;;5013041;28;20241;-59
2022/05/12 01:51:12;;;;;;;22.20;3.00;;;11.30;99.90;;;;;;5012984;28;20245;-66
2022/05/12 01:53:38;;;;;;;22.43;3.07;;;11.30;99.90;;;;;;5025433;28;20178;-65
2022/05/12 01:56:06;;;;;;;22.03;2.93;;;11.40;99.90;;;;;;5028553;28;20173;-66
2022/05/12 01:58:32;;;;;;;20.00;2.97;;;11.40;99.90;;;;;;5016382;28;20652;-66
2022/05/12 02:00:58;;;;;;;30.50;3.07;;;11.40;99.90;;;;;;5012288;28;20205;-66
2022/05/12 02:03:24;;;;;;;17.23;2.60;;;11.40;99.90;;;;;;5030098;28;20735;-66
2022/05/12 02:05:50;;;;;;;21.00;3.00;;;11.40;99.90;;;;;;5028371;28;20549;-66
2022/05/12 02:08:18;;;;;;;22.20;2.87;;;11.40;99.90;;;;;;5021428;28;20185;-66
2022/05/12 02:10:47;;;;;;;22.33;2.67;;;11.40;99.90;;;;;;5031955;28;20265;-66
2022/05/12 02:13:14;;;;;;;28.17;3.20;;;11.40;99.90;;;;;;5031827;28;20166;-66
2022/05/12 02:15:41;;;;;;;25.77;3.47;;;11.40;99.90;;;;;;5031306;28;20193;-66
2022/05/12 02:18:08;;;;;;;24.73;3.37;;;11.40;99.90;;;;;;5016303;28;20178;-66
2022/05/12 02:20:34;;;;;;;20.43;2.67;;;11.40;99.90;;;;;;5011796;28;20253;-66
2022/05/12 02:23:00;;;;;;;20.97;2.50;;;11.50;99.90;;;;;;5024211;28;20208;-66
2022/05/12 02:25:26;;;;;;;23.80;3.10;;;11.50;99.90;;;;;;5024082;28;20637;-66
2022/05/12 02:27:52;;;;;;;22.17;2.40;;;11.60;99.90;;;;;;5011925;28;20179;-66
2022/05/12 02:30:24;;;;;;;23.70;3.40;;;11.60;99.90;;;;;;5013274;28;20629;-66
2022/05/12 02:32:50;;;;;;;20.77;2.90;;;11.60;99.90;;;;;;5020075;28;20227;-66
2022/05/12 02:35:16;;;;;;;22.37;3.87;;;11.60;99.90;;;;;;5024122;28;20691;-66
2022/05/12 02:37:42;;;;;;;18.37;2.60;;;11.70;99.90;;;;;;5011703;28;20217;-66
2022/05/12 02:40:09;;;;;;;18.13;2.43;;;11.70;99.90;;;;;;5023920;28;20672;-66
2022/05/12 02:42:34;;;;;;;21.03;2.73;;;11.70;99.90;;;;;;5016352;28;20693;-67
2022/05/12 02:45:00;;;;;;;17.83;3.20;;;11.70;99.90;;;;;;5027205;28;20297;-66
2022/05/12 02:47:26;;;;;;;17.27;2.63;;;11.60;99.90;;;;;;5031216;28;20300;-66
2022/05/12 02:49:51;;;;;;;14.03;2.73;;;11.60;99.90;;;;;;5031136;28;20198;-67
2022/05/12 02:52:17;;;;;;;14.37;2.63;;;11.60;99.90;;;;;;5029630;28;20538;-67
2022/05/12 02:54:43;;;;;;;23.33;2.33;;;11.60;99.90;;;;;;5031166;28;20360;-67
2022/05/12 02:57:09;;;;;;;21.27;3.57;;;11.50;99.90;;;;;;5015028;28;20174;-67
2022/05/12 02:59:34;;;;;;;20.30;3.20;;;11.50;99.90;;;;;;5019595;28;20539;-67
2022/05/12 03:02:00;;;;;;;25.17;3.13;;;11.50;99.90;;;;;;5031039;28;20641;-67
2022/05/12 03:04:26;;;;;;;21.50;2.60;;;11.60;99.90;;;;;;5039815;28;20200;-67
2022/05/12 03:06:52;;;;;;;16.23;2.53;;;11.60;99.90;;;;;;5015466;28;20183;-67
2022/05/12 03:09:18;;;;;;;21.87;2.90;;;11.60;99.90;;;;;;5028503;28;20649;-67
2022/05/12 03:11:44;;;;;;;25.40;3.13;;;11.60;99.90;;;;;;5030386;28;20252;-67
2022/05/12 03:14:10;;;;;;;22.87;2.97;;;11.60;99.90;;;;;;5018467;28;20636;-67
2022/05/12 03:16:36;;;;;;;21.70;3.37;;;11.50;99.90;;;;;;5030914;28;20245;-67
2022/05/12 03:19:02;;;;;;;18.90;2.67;;;11.50;99.90;;;;;;5011397;28;20174;-67
2022/05/12 03:21:28;;;;;;;20.23;2.63;;;11.50;99.90;;;;;;5011254;28;20209;-66
2022/05/12 03:23:54;;;;;;;23.53;2.57;;;11.40;99.90;;;;;;5011355;28;20163;-66
2022/05/12 03:26:20;;;;;;;28.60;3.03;;;11.40;99.90;;;;;;5014824;28;20186;-67
2022/05/12 03:28:46;;;;;;;14.20;2.77;;;11.40;99.90;;;;;;5010861;28;20194;-67
2022/05/12 03:31:12;;;;;;;20.93;2.47;;;11.30;99.90;;;;;;5011527;28;20179;-59
2022/05/12 03:33:38;;;;;;;20.57;2.80;;;11.30;99.90;;;;;;5012636;28;20390;-68
2022/05/12 03:36:05;;;;;;;19.80;3.17;;;11.30;99.90;;;;;;5030264;28;20196;-67
2022/05/12 03:38:31;;;;;;;18.07;2.60;;;11.20;99.90;;;;;;5031038;28;20170;-68
2022/05/12 03:40:57;;;;;;;21.80;2.80;;;11.20;99.90;;;;;;5030800;28;20214;-68
2022/05/12 03:46:07;;;;;;;19.87;3.00;;;11.10;99.90;;;;;;5031142;28;20231;-68
2022/05/12 03:48:37;;;;;;;25.53;3.17;;;11.10;99.90;;;;;;5024333;28;20170;-68
2022/05/12 03:51:03;;;;;;;18.63;2.90;;;11.10;99.90;;;;;;5015304;28;20178;-68
2022/05/12 03:53:30;;;;;;;17.63;3.00;;;11.00;99.90;;;;;;5026222;28;20187;-68
2022/05/12 03:55:56;;;;;;;17.67;2.83;;;11.00;99.90;;;;;;5015529;28;20174;-68
2022/05/12 03:58:22;;;;;;;19.97;2.93;;;11.00;99.90;;;;;;5030842;28;20636;-68
2022/05/12 04:00:49;;;;;;;27.30;3.03;;;11.00;99.90;;;;;;5029065;28;20201;-67
2022/05/12 04:03:15;;;;;;;28.63;2.90;;;10.90;99.90;;;;;;5028385;28;20206;-68
2022/05/12 04:05:41;;;;;;;37.47;3.07;;;10.90;99.90;;;;;;5015134;28;20320;-68
2022/05/12 04:08:07;;;;;;;24.03;2.47;;;10.90;99.90;;;;;;5012381;28;20182;-67
2022/05/12 04:10:33;;;;;;;20.07;2.50;;;10.90;99.90;;;;;;5010806;28;20179;-67
2022/05/12 04:12:59;;;;;;;21.93;2.53;;;10.90;99.90;;;;;;5019131;28;20695;-69
2022/05/12 04:15:25;;;;;;;23.70;3.03;;;10.80;99.90;;;;;;5029078;28;20182;-70
2022/05/12 04:17:59;;;;;;;21.57;2.67;;;10.90;99.90;;;;;;5019458;28;20173;-70
2022/05/12 04:20:27;;;;;;;22.40;2.83;;;10.90;99.90;;;;;;5022401;28;20214;-69
2022/05/12 04:22:53;;;;;;;18.57;2.87;;;10.80;99.90;;;;;;5010849;28;20182;-68
2022/05/12 04:25:19;;;;;;;18.23;2.83;;;10.80;99.90;;;;;;5010770;28;20179;-70
2022/05/12 04:27:45;;;;;;;25.77;3.17;;;10.80;99.90;;;;;;5018270;28;20198;-68
2022/05/12 04:30:13;;;;;;;25.77;3.67;;;10.70;99.90;;;;;;5010933;28;20263;-69
2022/05/12 04:32:39;;;;;;;23.03;3.23;;;10.70;99.90;;;;;;5020662;28;20178;-69
2022/05/12 04:35:15;;;;;;;14.83;3.07;;;10.60;99.90;;;;;;5030384;28;20378;-69
2022/05/12 04:37:53;;;;;;;17.43;2.40;;;10.70;99.90;;;;;;5012254;28;20174;-69
2022/05/12 04:40:28;;;;;;;17.30;2.73;;;10.60;99.90;;;;;;5016996;28;20679;-69
2022/05/12 04:42:55;;;;;;;17.67;3.10;;;10.60;99.90;;;;;;5020392;28;20184;-69
2022/05/12 04:45:23;;;;;;;17.07;2.60;;;10.60;99.90;;;;;;5021795;28;20730;-69
2022/05/12 04:47:50;;;;;;;19.03;3.30;;;10.60;99.90;;;;;;5033937;28;20197;-68
2022/05/12 04:50:22;;;;;;;22.47;3.30;;;10.50;99.90;;;;;;5033727;28;20182;-68
2022/05/12 04:52:48;;;;;;;24.37;2.60;;;10.50;99.90;;;;;;5033776;28;20166;-69
2022/05/12 04:55:16;;;;;;;22.03;2.93;;;10.50;99.90;;;;;;5032230;28;20361;-69
2022/05/12 04:57:45;;;;;;;18.13;3.47;;;10.50;99.90;;;;;;5031891;28;20247;-69
2022/05/12 05:00:19;;;;;;;25.73;3.07;;;10.60;99.90;;;;;;5027729;28;20300;-70
2022/05/12 05:02:45;;;;;;;24.67;3.07;;;10.60;99.90;;;;;;5033559;28;20170;-70
2022/05/12 05:05:11;;;;;;;21.30;3.30;;;10.50;99.90;;;;;;5033572;28;20228;-70
2022/05/12 05:07:37;;;;;;;18.70;3.53;;;10.50;99.90;;;;;;5017934;28;20178;-70
2022/05/12 05:10:04;;;;;;;22.97;2.93;;;10.50;99.90;;;;;;5038616;28;20213;-69
2022/05/12 05:12:29;;;;;;;20.73;2.97;;;10.50;99.90;;;;;;5037954;28;20209;-71
2022/05/12 05:14:56;;;;;;;24.67;3.07;;;10.50;99.90;;;;;;5015726;28;20182;-70
2022/05/12 05:17:22;;;;;;;19.90;2.90;;;10.50;99.90;;;;;;5013440;28;20159;-70
2022/05/12 05:19:48;;;;;;;20.83;2.60;;;10.50;99.90;;;;;;5013458;28;20656;-70
2022/05/12 05:22:14;;;;;;;20.63;3.40;;;10.50;99.90;;;;;;5023747;28;20280;-68
2022/05/12 05:24:39;;;;;;;16.20;3.20;;;10.50;99.90;;;;;;5015281;28;20225;-68
2022/05/12 05:27:06;;;;;;;19.17;2.90;;;10.50;99.90;;;;;;5016759;28;20548;-68
2022/05/12 05:29:32;;;;;;;22.27;2.77;;;10.50;99.90;;;;;;5033083;28;20166;-67
2022/05/12 05:31:58;;;;;;;14.50;2.10;;;10.60;99.90;;;;;;5031126;28;20703;-67
2022/05/12 05:34:23;;;;;;;20.00;2.57;;;10.60;99.90;;;;;;5016593;28;20266;-67
2022/05/12 05:36:49;;;;;;;30.33;3.97;;;10.70;99.90;;;;;;5013086;28;20676;-68
2022/05/12 05:39:24;;;;;;;16.20;2.60;;;10.60;99.90;;;;;;5012448;28;20624;-66
2022/05/12 05:41:53;;;;;;;28.73;3.23;;;10.70;99.90;;;;;;5030363;28;20770;-66
2022/05/12 05:44:19;;;;;;;22.93;3.27;;;10.80;99.90;;;;;;5029526;28;20580;-67
2022/05/12 05:46:45;;;;;;;19.97;2.70;;;10.80;99.90;;;;;;5032935;28;20208;-67
2022/05/12 05:49:10;;;;;;;27.63;2.93;;;10.90;99.90;;;;;;5032440;28;20529;-69
2022/05/12 05:54:21;;;;;;;19.77;2.60;;;11.00;99.90;;;;;;5013899;28;20189;-69
2022/05/12 05:56:47;;;;;;;25.90;3.27;;;11.10;99.90;;;;;;5017412;28;20174;-68
2022/05/12 05:59:13;;;;;;;20.83;2.27;;;11.20;99.90;;;;;;5018276;28;20316;-69
2022/05/12 06:01:38;;;;;;;12.33;2.50;;;11.30;99.90;;;;;;5032321;28;20744;-69
2022/05/12 06:04:05;;;;;;;19.33;2.20;;;11.40;99.90;;;;;;5019238;28;20642;-69
2022/05/12 06:06:30;;;;;;;13.10;2.67;;;11.50;99.90;;;;;;5024885;28;20541;-65
2022/05/12 06:08:56;;;;;;;17.57;3.27;;;11.50;99.90;;;;;;5042915;28;20200;-65
2022/05/12 06:11:22;;;;;;;9.13;2.20;;;11.50;99.90;;;;;;5014338;28;20199;-65
2022/05/12 06:13:48;;;;;;;13.80;2.63;;;11.60;99.90;;;;;;5019515;28;20204;-65
2022/05/12 06:16:14;;;;;;;22.73;3.57;;;11.70;99.90;;;;;;5028404;28;20209;-65
2022/05/12 06:18:41;;;;;;;13.30;2.73;;;11.80;99.90;;;;;;5023709;28;20671;-65
2022/05/12 06:21:12;;;;;;;20.03;3.17;;;11.80;99.90;;;;;;5031886;28;20616;-65
2022/05/12 06:23:38;;;;;;;16.87;2.70;;;11.80;99.90;;;;;;5031945;28;20304;-65
2022/05/12 06:26:09;;;;;;;24.27;3.23;;;11.90;99.90;;;;;;5031626;28;20189;-65
2022/05/12 06:28:35;;;;;;;16.73;3.40;;;12.00;99.90;;;;;;5031818;28;20481;-64
2022/05/12 06:31:00;;;;;;;17.30;3.10;;;12.00;99.90;;;;;;5031561;28;20181;-65
2022/05/12 06:33:26;;;;;;;15.03;2.70;;;12.10;99.90;;;;;;5031694;28;20204;-64
2022/05/12 06:35:55;;;;;;;18.30;2.83;;;12.10;99.90;;;;;;5031523;28;20170;-64
2022/05/12 06:38:21;;;;;;;17.20;2.63;;;12.20;99.90;;;;;;5020320;28;20257;-64
2022/05/12 06:40:47;;;;;;;18.43;2.93;;;12.20;99.90;;;;;;5028854;28;20891;-65
2022/05/12 06:43:13;;;;;;;21.43;3.83;;;12.20;99.90;;;;;;5019970;28;20166;-65
2022/05/12 06:45:40;;;;;;;18.30;3.07;;;12.20;99.90;;;;;;5031601;28;20193;-66
2022/05/12 06:48:07;;;;;;;15.00;2.77;;;12.30;99.90;;;;;;5031409;28;20637;-67
2022/05/12 06:50:32;;;;;;;16.17;3.47;;;12.30;99.90;;;;;;5030897;28;20182;-67
2022/05/12 06:52:58;;;;;;;20.27;3.13;;;12.40;99.90;;;;;;5011411;28;20262;-66
2022/05/12 06:55:27;;;;;;;14.77;3.47;;;12.50;99.90;;;;;;5015014;28;20273;-67
2022/05/12 06:57:53;;;;;;;17.57;3.70;;;12.50;99.90;;;;;;5031508;28;20265;-67
2022/05/12 07:00:20;;;;;;;12.77;2.60;;;12.60;99.90;;;;;;5027088;28;20201;-66
2022/05/12 07:02:47;;;;;;;13.63;2.90;;;12.70;99.90;;;;;;5031162;28;20185;-67
2022/05/12 07:05:20;;;;;;;16.90;2.78;;;12.70;99.90;;;;;;5030349;28;20201;-64
2022/05/12 07:07:47;;;;;;;11.50;2.90;;;12.70;99.90;;;;;;5018547;28;20206;-65
2022/05/12 07:10:14;;;;;;;17.67;3.03;;;12.80;99.90;;;;;;5031028;28;20177;-56
2022/05/12 07:12:41;;;;;;;15.20;2.87;;;12.80;99.90;;;;;;5030894;28;20729;-58
2022/05/12 07:15:08;;;;;;;9.87;2.53;;;12.90;99.90;;;;;;5030769;28;20265;-58
2022/05/12 07:17:37;;;;;;;13.60;2.27;;;12.90;99.90;;;;;;5030704;28;20177;-56
2022/05/12 07:28:18;;;;;;;15.67;2.53;;;13.10;99.90;;;;;;5030892;28;20181;-56
2022/05/12 07:31:01;;;;;;;10.85;2.13;;;13.10;99.90;;;;;;5024292;28;20181;-58
2022/05/12 07:33:31;;;;;;;18.33;2.80;;;13.20;99.90;;;;;;5046804;28;20173;-58
2022/05/12 07:35:58;;;;;;;10.27;2.00;;;13.20;99.90;;;;;;5041850;28;20647;-57
2022/05/12 07:38:24;;;;;;;11.07;2.20;;;13.40;99.90;;;;;;5034893;28;20228;-59
2022/05/12 07:40:50;;;;;;;12.53;2.57;;;13.40;99.90;;;;;;5029672;28;20218;-59
2022/05/12 07:43:16;;;;;;;16.27;2.67;;;13.30;99.90;;;;;;5029338;28;20655;-56
2022/05/12 07:45:41;;;;;;;13.23;3.37;;;13.40;99.90;;;;;;5035651;28;20260;-57
2022/05/12 07:48:07;;;;;;;14.57;2.72;;;13.50;99.90;;;;;;5036835;28;20209;-57
2022/05/12 07:50:33;;;;;;;14.48;2.47;;;13.50;99.90;;;;;;5039546;28;20534;-58
2022/05/12 07:52:59;;;;;;;13.48;2.63;;;13.60;99.90;;;;;;5037415;28;20174;-58
2022/05/12 07:55:24;;;;;;;17.30;2.42;;;13.70;99.90;;;;;;5032756;28;20185;-59
2022/05/12 07:57:51;;;;;;;17.40;2.38;;;13.70;99.90;;;;;;5030430;28;20584;-58
2022/05/12 08:00:17;;;;;;;14.35;2.35;;;13.80;99.90;;;;;;5029665;28;20206;-58
2022/05/12 08:02:44;;;;;;;16.25;2.22;;;13.90;99.90;;;;;;5030615;28;20182;-59
2022/05/12 08:05:10;;;;;;;9.77;1.80;;;14.00;99.90;;;;;;5037056;28;20182;-59
2022/05/12 08:07:36;;;;;;;8.85;1.80;;;14.00;99.90;;;;;;5031079;28;20265;-59
2022/05/12 08:10:02;;;;;;;8.68;1.65;;;14.10;99.90;;;;;;5028411;28;20181;-59
2022/05/12 08:12:30;;;;;;;9.65;1.73;;;14.10;99.90;;;;;;5030418;28;20266;-59
2022/05/12 08:14:56;;;;;;;13.85;1.83;;;14.10;99.90;;;;;;5033868;28;20990;-59
2022/05/12 08:17:22;;;;;;;12.02;2.42;;;14.10;99.90;;;;;;5033746;28;20224;-59
2022/05/12 08:19:48;;;;;;;11.15;1.75;;;14.30;99.90;;;;;;5033892;28;20280;-59
2022/05/12 08:22:13;;;;;;;9.65;2.42;;;14.20;99.90;;;;;;5033945;28;20264;-58
2022/05/12 08:24:39;;;;;;;10.50;1.73;;;14.40;99.90;;;;;;5034068;28;20651;-59
2022/05/12 08:27:05;;;;;;;9.73;2.40;;;14.40;99.90;;;;;;5034026;28;20177;-58
2022/05/12 08:29:31;;;;;;;10.90;2.00;;;15.10;99.90;;;;;;5029507;28;20178;-59
2022/05/12 08:31:56;;;;;;;14.85;2.20;;;16.00;99.90;;;;;;5026265;28;20178;-56
2022/05/12 08:34:22;;;;;;;7.97;1.70;;;16.30;99.90;;;;;;5040434;28;20169;-56
2022/05/12 08:36:49;;;;;;;9.90;2.05;;;17.00;99.90;;;;;;5041035;28;20181;-57
2022/05/12 08:39:16;;;;;;;15.30;2.10;;;16.90;99.90;;;;;;5028774;28;20180;-56
2022/05/12 08:41:59;;;;;;;8.23;1.80;;;17.50;99.90;;;;;;5042846;28;20209;-57
2022/05/12 08:44:26;;;;;;;13.90;2.35;;;17.80;99.90;;;;;;5031941;28;20278;-57
2022/05/12 08:46:57;;;;;;;7.07;1.70;;;18.10;99.90;;;;;;5013635;28;20696;-58
2022/05/12 08:49:30;;;;;;;8.05;1.90;;;18.50;99.90;;;;;;5025495;28;20228;-58
2022/05/12 08:52:10;;;;;;;6.18;1.60;;;18.40;99.90;;;;;;5024119;28;20309;-58
2022/05/12 08:54:40;;;;;;;9.00;1.63;;;18.20;99.90;;;;;;5023434;28;20205;-57
2022/05/12 08:57:09;;;;;;;7.63;1.50;;;17.70;99.90;;;;;;5020710;28;20635;-57
2022/05/12 08:59:38;;;;;;;10.35;1.70;;;17.40;99.90;;;;;;5021396;28;20169;-57
2022/05/12 09:02:19;;;;;;;8.95;1.60;;;17.30;99.90;;;;;;5020737;28;20170;-58
2022/05/12 09:04:51;;;;;;;10.30;1.65;;;17.40;99.90;;;;;;5021169;28;20663;-58
2022/05/12 09:07:28;;;;;;;6.53;1.40;;;17.20;99.90;;;;;;5013588;28;20183;-58
2022/05/12 09:10:06;;;;;;;12.10;1.48;;;17.20;99.90;;;;;;5016831;28;20202;-57
2022/05/12 09:12:42;;;;;;;10.90;1.95;;;17.10;99.90;;;;;;5010876;28;20182;-57
2022/05/12 09:15:21;;;;;;;9.88;1.67;;;17.10;99.90;;;;;;5017245;28;20264;-57
2022/05/12 09:18:02;;;;;;;8.90;1.67;;;17.20;99.90;;;;;;5016949;28;20713;-57
2022/05/12 09:20:31;;;;;;;6.38;1.70;;;17.30;99.90;;;;;;5012789;28;20214;-57
2022/05/12 09:22:58;;;;;;;9.80;1.80;;;17.50;99.90;;;;;;5012094;28;20181;-56
2022/05/12 09:25:36;;;;;;;8.40;1.88;;;17.70;99.90;;;;;;5011655;28;20241;-56
2022/05/12 09:28:29;;;;;;;8.23;1.38;;;17.90;99.90;;;;;;5012504;28;20175;-57
2022/05/12 09:31:00;;;;;;;11.70;1.70;;;17.80;99.90;;;;;;5012584;28;20186;-57
2022/05/12 09:33:35;;;;;;;7.70;2.15;;;17.80;99.90;;;;;;5012746;28;20171;-58
2022/05/12 09:36:05;;;;;;;8.93;1.60;;;18.20;99.90;;;;;;5012856;28;20182;-57
2022/05/12 09:38:40;;;;;;;12.30;2.00;;;18.40;99.90;;;;;;5013122;28;20181;-58
2022/05/12 09:41:31;;;;;;;10.20;1.50;;;18.00;99.90;;;;;;5012607;28;20213;-58
2022/05/12 09:43:57;;;;;;;13.48;1.88;;;18.20;99.90;;;;;;5018734;28;20222;-58
2022/05/12 09:46:29;;;;;;;10.48;2.13;;;18.20;99.90;;;;;;5032621;28;20188;-58
2022/05/12 09:49:14;;;;;;;10.55;1.70;;;18.30;99.90;;;;;;5032744;28;20260;-58
2022/05/12 09:51:40;;;;;;;8.05;1.80;;;18.30;99.90;;;;;;5032049;28;20170;-59
2022/05/12 09:54:15;;;;;;;7.03;2.00;;;17.40;99.90;;;;;;5032201;28;20204;-58
2022/05/12 09:56:46;;;;;;;5.97;1.58;;;17.80;99.90;;;;;;5032020;28;20169;-58
2022/05/12 09:59:14;;;;;;;13.55;1.60;;;18.10;99.90;;;;;;5031963;28;20177;-58
2022/05/12 10:02:01;;;;;;;12.77;1.70;;;18.30;99.90;;;;;;5032117;28;20275;-58
2022/05/12 10:10:27;;;;;;;11.32;2.00;;;19.10;99.90;;;;;;5032171;28;20197;-58
2022/05/12 10:13:00;;;;;;;10.20;2.00;;;19.30;99.90;;;;;;5032168;28;20177;-58
2022/05/12 10:15:37;;;;;;;8.75;1.80;;;19.10;99.90;;;;;;5032352;28;20166;-58
2022/05/12 10:18:20;;;;;;;11.10;1.83;;;19.30;99.90;;;;;;5032103;28;20181;-58
2022/05/12 10:20:50;;;;;;;7.72;1.48;;;19.70;99.90;;;;;;5031808;28;20209;-58
2022/05/12 10:23:21;;;;;;;8.30;1.85;;;19.30;99.90;;;;;;5031209;28;20170;-58
2022/05/12 10:25:57;;;;;;;10.27;1.90;;;19.00;99.90;;;;;;5028528;28;20190;-58
2022/05/12 10:28:48;;;;;;;13.00;2.20;;;18.80;99.90;;;;;;5029819;28;20193;-58
2022/05/12 10:31:34;;;;;;;7.32;1.52;;;18.60;99.90;;;;;;5029761;28;20224;-58
2022/05/12 10:34:41;;;;;;;11.73;1.90;;;19.10;99.90;;;;;;5022190;28;20178;-58
2022/05/12 10:37:33;;;;;;;13.10;1.80;;;18.80;99.90;;;;;;5029935;28;20169;-58
2022/05/12 10:40:17;;;;;;;7.63;1.73;;;18.30;99.90;;;;;;5031194;28;20213;-58
2022/05/12 10:42:57;;;;;;;11.80;1.60;;;18.20;99.90;;;;;;5030248;28;20278;-58
2022/05/12 10:45:34;;;;;;;9.57;1.52;;;17.90;99.90;;;;;;5014096;28;20717;-58
2022/05/12 10:48:30;;;;;;;5.65;1.42;;;18.50;99.90;;;;;;5018462;28;20221;-58
2022/05/12 10:51:01;;;;;;;8.98;1.50;;;19.60;99.90;;;;;;5015593;28;20633;-58
2022/05/12 10:54:09;;;;;;;6.13;1.42;;;19.90;99.90;;;;;;5010230;28;20567;-58
2022/05/12 10:57:12;;;;;;;5.82;1.20;;;19.20;99.90;;;;;;5011665;28;20200;-58
2022/05/12 10:59:55;;;;;;;9.00;1.35;;;18.40;99.90;;;;;;5034051;28;20201;-58
2022/05/12 11:02:38;;;;;;;8.65;1.10;;;18.50;99.90;;;;;;5031199;28;20178;-58
2022/05/12 11:05:32;;;;;;;6.65;1.48;;;19.60;99.90;;;;;;5031101;28;20231;-59
2022/05/12 11:08:18;;;;;;;4.80;1.05;;;20.10;99.90;;;;;;5023004;28;20245;-58
2022/05/12 11:10:50;;;;;;;3.28;0.95;;;20.80;99.90;;;;;;5027544;28;20177;-58
2022/05/12 11:13:24;;;;;;;6.78;1.10;;;21.00;99.90;;;;;;5031231;28;20227;-59
2022/05/12 11:15:58;;;;;;;6.82;1.08;;;21.40;99.90;;;;;;5030990;28;20169;-58
2022/05/12 11:18:33;;;;;;;8.60;1.23;;;20.20;99.90;;;;;;5030402;28;20248;-59
2022/05/12 11:21:10;;;;;;;7.47;1.02;;;20.10;99.90;;;;;;5030842;28;20208;-58
2022/05/12 11:23:58;;;;;;;4.47;1.20;;;20.50;99.90;;;;;;5031115;28;20296;-59
2022/05/12 11:26:35;;;;;;;5.75;1.10;;;20.40;99.90;;;;;;5030991;28;20616;-58
2022/05/12 11:29:41;;;;;;;4.28;1.23;;;20.40;99.90;;;;;;5030905;28;20565;-58
2022/05/12 11:32:09;;;;;;;8.38;1.20;;;21.50;99.90;;;;;;5030921;28;20205;-59
2022/05/12 11:34:37;;;;;;;6.00;1.00;;;21.30;99.90;;;;;;5029883;28;20640;-58
2022/05/12 11:37:26;;;;;;;4.43;1.15;;;21.60;99.90;;;;;;5030633;28;20184;-58
2022/05/12 11:39:57;;;;;;;4.72;1.33;;;21.30;99.90;;;;;;5030129;28;20212;-58
2022/05/12 11:42:28;;;;;;;4.10;1.25;;;21.50;99.90;;;;;;5030863;28;20518;-58
2022/05/12 11:45:01;;;;;;;5.25;1.00;;;20.80;99.90;;;;;;5030798;28;20252;-58
2022/05/12 11:47:59;;;;;;;3.88;1.20;;;20.00;99.90;;;;;;5030984;28;20170;-58
2022/05/12 11:50:36;;;;;;;2.10;0.90;;;19.20;99.90;;;;;;5034789;28;20173;-58
2022/05/12 11:53:18;;;;;;;5.63;0.93;;;18.10;99.90;;;;;;5034576;28;20162;-58
2022/05/12 11:56:13;;;;;;;4.78;1.20;;;18.60;99.90;;;;;;5033833;28;20682;-58
2022/05/12 11:58:47;;;;;;;11.45;1.42;;;20.50;99.90;;;;;;5033980;28;20212;-59
2022/05/12 12:01:24;;;;;;;5.55;1.55;;;21.60;99.90;;;;;;5032659;28;20284;-59
2022/05/12 12:04:02;;;;;;;9.73;1.48;;;21.90;99.90;;;;;;5033479;28;20185;-59
2022/05/12 12:06:37;;;;;;;9.02;1.42;;;21.40;99.90;;;;;;5049141;28;20181;-59
2022/05/12 12:09:31;;;;;;;5.10;1.13;;;21.90;99.90;;;;;;5014555;28;20170;-58
2022/05/12 12:11:57;;;;;;;10.30;1.10;;;21.30;99.90;;;;;;5031677;28;20178;-58
2022/05/12 12:14:50;;;;;;;5.95;1.23;;;21.30;99.90;;;;;;5030365;28;20170;-59
2022/05/12 12:17:25;;;;;;;6.53;1.08;;;20.70;99.90;;;;;;5033108;28;20656;-59
2022/05/12 12:19:56;;;;;;;7.90;1.17;;;21.50;99.90;;;;;;5034136;28;20205;-59
2022/05/12 12:22:27;;;;;;;3.85;0.80;;;21.20;99.90;;;;;;5034061;28;20265;-58
2022/05/12 12:25:00;;;;;;;4.70;1.42;;;21.10;99.90;;;;;;5032663;28;20202;-58
2022/05/12 12:27:40;;;;;;;5.40;1.13;;;20.70;99.90;;;;;;5034120;28;20279;-59
2022/05/12 12:30:26;;;;;;;6.45;0.95;;;20.90;99.90;;;;;;5033330;28;20181;-59
2022/05/12 12:33:09;;;;;;;9.02;1.25;;;20.10;99.90;;;;;;5013995;28;20197;-57
2022/05/12 12:35:54;;;;;;;8.05;1.20;;;19.40;99.90;;;;;;5016864;28;20178;-58
2022/05/12 12:38:44;;;;;;;7.72;1.00;;;18.70;99.90;;;;;;5033724;28;20234;-57
2022/05/12 12:41:15;;;;;;;7.13;1.45;;;18.60;99.90;;;;;;5033622;28;20210;-58
2022/05/12 12:43:46;;;;;;;8.20;1.45;;;18.40;99.90;;;;;;5033575;28;20337;-57
2022/05/12 12:46:27;;;;;;;12.20;1.90;;;17.90;99.90;;;;;;5032873;28;20637;-58
2022/05/12 12:49:20;;;;;;;6.28;1.40;;;17.60;99.90;;;;;;5028615;28;20768;-58
2022/05/12 12:52:06;;;;;;;7.63;1.88;;;17.50;99.90;;;;;;5022963;28;20181;-57
2022/05/12 12:57:43;;;;;;;9.27;1.60;;;17.00;99.90;;;;;;5013993;28;20225;-58
2022/05/12 13:00:33;;;;;;;7.95;1.67;;;17.00;99.90;;;;;;5032397;28;20209;-58
2022/05/12 13:03:17;;;;;;;9.55;1.58;;;16.40;99.90;;;;;;5033255;28;20188;-58
2022/05/12 13:05:43;;;;;;;6.40;1.50;;;16.40;99.90;;;;;;5028527;28;20189;-58
2022/05/12 13:08:27;;;;;;;9.27;1.50;;;16.40;99.90;;;;;;5013268;28;20223;-58
2022/05/12 13:10:59;;;;;;;3.88;1.02;;;16.70;99.90;;;;;;5013628;28;20519;-59
2022/05/12 13:13:26;;;;;;;12.95;1.85;;;17.00;99.90;;;;;;5013357;28;20175;-60
2022/05/12 13:16:03;;;;;;;5.28;0.90;;;16.90;99.90;;;;;;5033261;28;20172;-58
2022/05/12 13:18:35;;;;;;;5.15;1.35;;;16.70;99.90;;;;;;5012819;28;20213;-59
2022/05/12 13:21:03;;;;;;;6.00;1.10;;;16.80;99.90;;;;;;5013440;28;20218;-58